createdAt,value
2022-12-03T00:00:19.641Z,87.23
2022-12-03T00:03:07.495Z,86.99
2022-12-03T00:05:35.347Z,86.82
2022-12-03T00:08:04.198Z,86.57
2022-12-03T00:10:32.238Z,86.49
2022-12-03T00:12:59.982Z,86.59
2022-12-03T00:15:27.897Z,86.32
2022-12-03T00:17:55.723Z,86.24
2022-12-03T00:20:25.257Z,86.75
2022-12-03T00:22:53.084Z,86.98
2022-12-03T00:25:21.052Z,86.64
2022-12-03T00:27:48.821Z,86.49
2022-12-03T00:30:16.892Z,86.39
2022-12-03T00:32:44.738Z,86.30
2022-12-03T00:35:12.624Z,86.37
2022-12-03T00:37:40.402Z,86.38
2022-12-03T00:40:08.889Z,86.53
2022-12-03T00:42:36.710Z,86.89
2022-12-03T00:45:06.058Z,87.29
2022-12-03T00:47:34.217Z,86.82
2022-12-03T00:50:01.984Z,86.66
2022-12-03T00:52:29.846Z,86.43
2022-12-03T00:54:57.615Z,86.47
2022-12-03T00:57:25.376Z,86.29
2022-12-03T00:59:53.248Z,86.21
2022-12-03T01:02:21.622Z,86.16
2022-12-03T01:04:49.538Z,86.06
2022-12-03T01:07:17.329Z,85.81
2022-12-03T01:09:45.129Z,85.59
2022-12-03T01:12:12.991Z,85.75
2022-12-03T01:14:40.873Z,85.73
2022-12-03T01:17:08.930Z,85.54
2022-12-03T01:19:37.113Z,85.90
2022-12-03T01:22:04.979Z,85.87
2022-12-03T01:24:33.132Z,85.93
2022-12-03T01:27:01.024Z,86.60
2022-12-03T01:29:28.714Z,86.80
2022-12-03T01:32:10.780Z,86.90
2022-12-03T01:34:38.523Z,87.09
2022-12-03T01:37:06.211Z,87.42
2022-12-03T01:39:34.033Z,87.14
2022-12-03T01:42:03.204Z,86.97
2022-12-03T01:44:34.686Z,86.62
2022-12-03T01:47:06.361Z,86.40
2022-12-03T01:49:45.665Z,86.20
2022-12-03T01:52:17.172Z,86.24
2022-12-03T01:54:50.208Z,86.24
2022-12-03T01:57:24.634Z,86.41
2022-12-03T01:59:53.953Z,87.02
2022-12-03T02:02:25.054Z,87.08
2022-12-03T02:04:54.212Z,86.87
2022-12-03T02:07:34.711Z,87.22
2022-12-03T02:10:04.275Z,87.30
2022-12-03T02:12:36.562Z,87.03
2022-12-03T02:15:06.301Z,86.92
2022-12-03T02:17:34.804Z,86.81
2022-12-03T02:20:08.903Z,86.68
2022-12-03T02:22:50.289Z,86.70
2022-12-03T02:25:20.946Z,86.38
2022-12-03T02:27:49.713Z,86.43
2022-12-03T02:30:20.822Z,86.30
2022-12-03T02:32:49.670Z,85.96
2022-12-03T02:35:21.906Z,86.00
2022-12-03T02:37:54.374Z,86.09
2022-12-03T02:40:25.825Z,85.91
2022-12-03T02:42:57.036Z,85.86
2022-12-03T02:45:28.699Z,85.74
2022-12-03T02:48:01.360Z,85.69
2022-12-03T02:50:33.873Z,86.03
2022-12-03T02:53:05.935Z,86.25
2022-12-03T02:55:37.404Z,86.31
2022-12-03T02:58:06.458Z,87.12
2022-12-03T03:00:36.057Z,87.36
2022-12-03T03:03:06.211Z,87.79
2022-12-03T03:05:37.823Z,87.23
2022-12-03T03:08:07.976Z,87.42
2022-12-03T03:10:38.174Z,87.74
2022-12-03T03:13:10.911Z,88.05
2022-12-03T03:15:40.692Z,88.03
2022-12-03T03:18:10.474Z,88.41
2022-12-03T03:20:39.176Z,88.14
2022-12-03T03:23:15.877Z,88.50
2022-12-03T03:25:48.668Z,88.47
2022-12-03T03:28:16.793Z,88.29
2022-12-03T03:30:45.215Z,88.25
2022-12-03T03:33:15.501Z,88.17
2022-12-03T03:35:45.243Z,88.54
2022-12-03T03:38:13.526Z,88.64
2022-12-03T03:40:42.231Z,88.40
2022-12-03T03:43:10.906Z,88.57
2022-12-03T03:45:38.919Z,88.27
2022-12-03T03:48:07.680Z,87.95
2022-12-03T03:50:36.039Z,87.70
2022-12-03T03:53:04.783Z,87.57
2022-12-03T03:55:33.681Z,87.64
2022-12-03T03:58:01.792Z,87.57
2022-12-03T04:00:30.996Z,87.48
2022-12-03T04:02:58.859Z,87.60
2022-12-03T04:05:27.751Z,87.91
2022-12-03T04:07:55.603Z,87.62
2022-12-03T04:10:41.893Z,87.63
2022-12-03T04:13:09.506Z,87.39
2022-12-03T04:15:37.414Z,87.43
2022-12-03T04:18:22.411Z,87.65
2022-12-03T04:20:50.523Z,88.41
2022-12-03T04:23:18.263Z,88.23
2022-12-03T04:26:02.914Z,88.27
2022-12-03T04:28:42.956Z,87.92
2022-12-03T04:31:23.305Z,87.86
2022-12-03T04:34:03.337Z,87.78
2022-12-03T04:36:31.197Z,87.76
2022-12-03T04:38:59.009Z,87.81
2022-12-03T04:41:26.814Z,87.75
2022-12-03T04:44:13.974Z,87.56
2022-12-03T04:46:41.766Z,87.62
2022-12-03T04:49:09.487Z,87.51
2022-12-03T04:51:37.300Z,87.37
2022-12-03T04:54:05.236Z,87.28
2022-12-03T04:56:38.160Z,87.52
2022-12-03T04:59:08.087Z,87.40
2022-12-03T05:01:39.141Z,87.31
2022-12-03T05:04:07.295Z,87.40
2022-12-03T05:06:35.997Z,87.58
2022-12-03T05:09:04.011Z,87.78
2022-12-03T05:11:31.879Z,87.88
2022-12-03T05:13:59.667Z,88.03
2022-12-03T05:16:29.818Z,88.15
2022-12-03T05:18:57.868Z,88.18
2022-12-03T05:21:25.744Z,88.19
2022-12-03T05:23:53.713Z,88.29
2022-12-03T05:26:21.762Z,88.18
2022-12-03T05:28:50.068Z,88.27
2022-12-03T05:31:18.109Z,88.37
2022-12-03T05:33:45.990Z,88.36
2022-12-03T05:36:13.761Z,88.03
2022-12-03T05:38:41.620Z,87.91
2022-12-03T05:41:27.411Z,88.06
2022-12-03T05:43:55.456Z,87.60
2022-12-03T05:46:23.322Z,87.34
2022-12-03T05:48:51.134Z,87.51
2022-12-03T05:51:18.976Z,87.48
2022-12-03T05:53:46.781Z,87.83
2022-12-03T05:56:14.501Z,88.50
2022-12-03T05:58:42.372Z,88.12
2022-12-03T06:01:10.243Z,87.91
2022-12-03T06:03:38.113Z,89.78
2022-12-03T06:06:06.292Z,88.99
2022-12-03T06:08:34.038Z,88.92
2022-12-03T06:11:01.753Z,88.61
2022-12-03T06:13:29.895Z,89.11
2022-12-03T06:15:57.726Z,90.83
2022-12-03T06:18:25.486Z,90.39
2022-12-03T06:20:53.397Z,90.21
2022-12-03T06:23:21.098Z,90.47
2022-12-03T06:25:50.542Z,89.99
2022-12-03T06:28:18.493Z,90.07
2022-12-03T06:30:46.242Z,90.17
2022-12-03T06:33:14.242Z,89.72
2022-12-03T06:35:42.214Z,89.76
2022-12-03T06:38:10.089Z,89.55
2022-12-03T06:40:38.280Z,89.51
2022-12-03T06:43:06.156Z,89.36
2022-12-03T06:45:33.928Z,89.26
2022-12-03T06:48:02.040Z,88.86
2022-12-03T06:50:30.188Z,88.77
2022-12-03T06:52:59.550Z,88.65
2022-12-03T06:55:27.305Z,88.43
2022-12-03T06:57:55.057Z,88.55
2022-12-03T07:00:23.148Z,88.55
2022-12-03T07:02:52.013Z,88.39
2022-12-03T07:05:20.091Z,88.60
2022-12-03T07:07:52.253Z,88.63
2022-12-03T07:10:20.244Z,88.73
2022-12-03T07:12:48.006Z,88.87
2022-12-03T07:15:15.975Z,90.02
2022-12-03T07:17:43.896Z,89.69
2022-12-03T07:20:12.578Z,89.66
2022-12-03T07:22:40.271Z,89.64
2022-12-03T07:25:09.054Z,89.20
2022-12-03T07:27:39.913Z,89.07
2022-12-03T07:30:08.620Z,88.72
2022-12-03T07:32:36.440Z,88.53
2022-12-03T07:35:07.168Z,88.44
2022-12-03T07:37:35.261Z,88.09
2022-12-03T07:40:04.650Z,87.94
2022-12-03T07:42:33.086Z,87.50
2022-12-03T07:45:00.796Z,87.57
2022-12-03T07:47:28.570Z,87.57
2022-12-03T07:49:56.269Z,86.98
2022-12-03T07:52:24.006Z,86.91
2022-12-03T07:54:52.195Z,86.90
2022-12-03T07:57:20.224Z,86.44
2022-12-03T07:59:51.363Z,86.15
2022-12-03T08:02:21.595Z,85.90
2022-12-03T08:04:50.364Z,86.25
2022-12-03T08:07:18.509Z,87.70
2022-12-03T08:09:46.609Z,88.58
2022-12-03T08:12:18.125Z,88.22
2022-12-03T08:14:45.804Z,87.87
2022-12-03T08:17:14.757Z,87.60
2022-12-03T08:19:45.919Z,87.50
2022-12-03T08:22:15.664Z,87.49
2022-12-03T08:24:43.810Z,87.11
2022-12-03T08:27:19.749Z,87.15
2022-12-03T08:29:48.053Z,87.27
2022-12-03T08:32:16.392Z,87.08
2022-12-03T08:34:44.746Z,87.40
2022-12-03T08:37:18.346Z,87.42
2022-12-03T08:39:49.229Z,87.71
2022-12-03T08:42:52.424Z,87.43
2022-12-03T08:45:40.768Z,87.28
2022-12-03T08:48:20.558Z,87.08
2022-12-03T08:50:48.315Z,86.67
2022-12-03T08:53:37.313Z,86.78
2022-12-03T08:56:19.820Z,87.09
2022-12-03T08:58:53.027Z,86.52
2022-12-03T09:01:31.302Z,86.47
2022-12-03T09:04:16.224Z,85.78
2022-12-03T09:06:44.121Z,85.84
2022-12-03T09:09:11.859Z,86.01
2022-12-03T09:11:40.284Z,85.51
2022-12-03T09:14:08.283Z,85.60
2022-12-03T09:16:36.178Z,85.27
2022-12-03T09:19:04.707Z,84.80
2022-12-03T09:21:33.096Z,84.90
2022-12-03T09:24:00.829Z,84.94
2022-12-03T09:26:29.761Z,84.17
2022-12-03T09:28:57.512Z,82.89
2022-12-03T09:31:25.622Z,82.50
2022-12-03T09:33:54.124Z,82.82
2022-12-03T09:36:21.937Z,83.18
2022-12-03T09:38:50.213Z,82.15
2022-12-03T09:41:18.105Z,81.74
2022-12-03T09:46:36.357Z,82.41
2022-12-03T09:49:12.326Z,81.97
2022-12-03T09:51:45.490Z,82.25
2022-12-03T09:54:23.982Z,81.58
2022-12-03T09:56:53.821Z,80.91
2022-12-03T09:59:24.241Z,81.32
2022-12-03T10:01:53.309Z,81.74
2022-12-03T10:04:21.418Z,81.86
2022-12-03T10:06:49.920Z,81.63
2022-12-03T10:09:25.171Z,81.98
2022-12-03T10:11:53.073Z,82.43
2022-12-03T10:14:21.076Z,82.51
2022-12-03T10:16:49.327Z,82.12
2022-12-03T10:19:24.375Z,82.60
2022-12-03T10:21:52.156Z,81.84
2022-12-03T10:24:23.969Z,81.14
2022-12-03T10:26:55.092Z,80.83
2022-12-03T10:29:32.921Z,80.99
2022-12-03T10:32:06.071Z,81.16
2022-12-03T10:34:37.507Z,81.34
2022-12-03T10:37:11.837Z,81.79
2022-12-03T10:39:58.501Z,82.15
2022-12-03T10:42:30.034Z,81.51
2022-12-03T10:45:19.174Z,81.17
2022-12-03T10:48:05.981Z,80.81
2022-12-03T10:50:34.769Z,80.52
2022-12-03T10:53:03.173Z,80.85
2022-12-03T10:55:39.842Z,80.87
2022-12-03T10:58:24.746Z,80.61
2022-12-03T11:00:55.106Z,80.61
2022-12-03T11:03:26.811Z,80.07
2022-12-03T11:05:56.280Z,80.40
2022-12-03T11:08:27.791Z,80.66
2022-12-03T11:11:00.768Z,80.26
2022-12-03T11:13:50.213Z,80.52
2022-12-03T11:16:49.071Z,80.40
2022-12-03T11:19:37.357Z,80.34
2022-12-03T11:22:26.690Z,80.73
2022-12-03T11:25:31.295Z,81.05
2022-12-03T11:28:31.088Z,80.90
2022-12-03T11:31:02.778Z,81.23
2022-12-03T11:33:33.934Z,81.79
2022-12-03T11:36:10.202Z,81.83
2022-12-03T11:38:52.405Z,81.74
2022-12-03T11:41:29.074Z,82.24
2022-12-03T11:43:59.492Z,81.95
2022-12-03T11:46:43.594Z,82.15
2022-12-03T11:49:38.625Z,81.56
2022-12-03T11:52:23.645Z,81.55
2022-12-03T11:54:56.398Z,81.92
2022-12-03T11:57:28.666Z,81.88
2022-12-03T11:59:59.033Z,82.17
2022-12-03T12:02:26.885Z,82.32
2022-12-03T12:04:54.842Z,82.15
2022-12-03T12:07:42.625Z,82.13
2022-12-03T12:10:11.520Z,82.58
2022-12-03T12:12:51.133Z,82.79
2022-12-03T12:15:35.230Z,83.15
2022-12-03T12:18:33.349Z,83.47
2022-12-03T12:21:33.127Z,83.09
2022-12-03T12:24:31.001Z,82.88
2022-12-03T12:27:02.915Z,82.33
2022-12-03T12:29:31.204Z,82.28
2022-12-03T12:32:12.074Z,82.30
2022-12-03T12:34:41.930Z,81.92
2022-12-03T12:37:28.345Z,82.35
2022-12-03T12:39:57.330Z,82.74
2022-12-03T12:42:31.557Z,82.71
2022-12-03T12:45:09.049Z,82.62
2022-12-03T12:47:37.594Z,83.28
2022-12-03T12:50:10.716Z,83.23
2022-12-03T12:52:48.702Z,83.05
2022-12-03T12:55:17.405Z,83.20
2022-12-03T12:57:45.189Z,83.09
2022-12-03T13:00:18.074Z,83.33
2022-12-03T13:02:51.573Z,83.29
2022-12-03T13:05:22.050Z,84.17
2022-12-03T13:07:52.860Z,84.25
2022-12-03T13:10:32.563Z,84.53
2022-12-03T13:13:16.294Z,84.62
2022-12-03T13:15:57.423Z,84.58
2022-12-03T13:18:33.223Z,84.49
2022-12-03T13:21:33.304Z,84.53
2022-12-03T13:24:01.695Z,84.79
2022-12-03T13:26:45.439Z,84.47
2022-12-03T13:29:16.914Z,84.75
2022-12-03T13:31:59.846Z,84.92
2022-12-03T13:34:33.830Z,84.98
2022-12-03T13:37:02.757Z,85.46
2022-12-03T13:39:35.033Z,86.02
2022-12-03T13:42:46.428Z,85.68
2022-12-03T13:45:31.405Z,86.06
2022-12-03T13:48:02.858Z,86.27
2022-12-03T13:50:38.049Z,86.09
2022-12-03T13:53:22.387Z,85.67
2022-12-03T13:55:54.306Z,85.69
2022-12-03T13:58:22.097Z,85.71
2022-12-03T14:00:50.018Z,85.58
2022-12-03T14:03:17.862Z,85.40
2022-12-03T14:05:45.706Z,85.15
2022-12-03T14:08:13.620Z,84.95
2022-12-03T14:10:41.516Z,84.80
2022-12-03T14:13:10.036Z,84.85
2022-12-03T14:15:38.657Z,84.70
2022-12-03T14:18:06.701Z,84.86
2022-12-03T14:20:35.116Z,85.03
2022-12-03T14:23:02.936Z,85.30
2022-12-03T14:25:30.742Z,84.87
2022-12-03T14:28:00.647Z,85.36
2022-12-03T14:30:28.697Z,86.29
2022-12-03T14:32:56.402Z,87.07
2022-12-03T14:35:24.268Z,87.46
2022-12-03T14:37:52.097Z,88.53
2022-12-03T14:40:22.016Z,87.90
2022-12-03T14:42:50.335Z,87.53
2022-12-03T14:45:18.127Z,87.50
2022-12-03T14:47:45.872Z,88.88
2022-12-03T14:50:14.571Z,89.52
2022-12-03T14:52:43.393Z,90.09
2022-12-03T14:55:11.113Z,89.75
2022-12-03T14:57:38.926Z,89.39
2022-12-03T15:00:07.551Z,88.81
2022-12-03T15:02:35.669Z,88.42
2022-12-03T15:05:03.820Z,88.30
2022-12-03T15:07:32.092Z,88.05
2022-12-03T15:10:00.846Z,87.84
2022-12-03T15:12:28.581Z,88.01
2022-12-03T15:14:56.308Z,88.34
2022-12-03T15:17:31.267Z,87.99
2022-12-03T15:19:59.698Z,88.11
2022-12-03T15:22:27.418Z,88.10
2022-12-03T15:24:55.167Z,87.95
2022-12-03T15:27:23.451Z,88.15
2022-12-03T15:29:51.570Z,88.04
2022-12-03T15:32:19.709Z,87.87
2022-12-03T15:34:47.595Z,87.95
2022-12-03T15:37:15.337Z,87.89
2022-12-03T15:39:48.483Z,87.96
2022-12-03T15:42:16.784Z,87.88
2022-12-03T15:44:46.872Z,88.25
2022-12-03T15:47:14.555Z,88.12
2022-12-03T15:49:42.401Z,87.95
2022-12-03T15:52:10.100Z,88.76
2022-12-03T15:54:37.762Z,88.96
2022-12-03T15:57:05.552Z,89.49
2022-12-03T15:59:33.221Z,90.68
2022-12-03T16:02:01.013Z,90.14
2022-12-03T16:04:28.988Z,89.84
2022-12-03T16:06:56.772Z,89.76
2022-12-03T16:09:27.458Z,89.27
2022-12-03T16:11:55.626Z,89.20
2022-12-03T16:14:23.486Z,89.80
2022-12-03T16:16:51.940Z,89.39
2022-12-03T16:19:19.778Z,89.29
2022-12-03T16:21:47.466Z,89.39
2022-12-03T16:24:15.257Z,91.22
2022-12-03T16:26:43.071Z,92.33
2022-12-03T16:29:10.687Z,93.32
2022-12-03T16:31:38.543Z,94.42
2022-12-03T16:34:06.326Z,95.23
2022-12-03T16:36:34.635Z,95.57
2022-12-03T16:39:02.414Z,95.66
2022-12-03T16:41:30.326Z,95.08
2022-12-03T16:43:58.170Z,94.09
2022-12-03T16:46:26.595Z,93.83
2022-12-03T16:48:57.868Z,93.30
2022-12-03T16:51:26.821Z,93.16
2022-12-03T16:53:55.014Z,92.80
2022-12-03T16:56:22.789Z,92.33
2022-12-03T16:58:50.583Z,92.22
2022-12-03T17:01:18.416Z,91.88
2022-12-03T17:03:46.351Z,91.50
2022-12-03T17:06:14.061Z,91.18
2022-12-03T17:08:47.380Z,90.97
2022-12-03T17:11:17.440Z,90.54
2022-12-03T17:13:45.137Z,90.47
2022-12-03T17:16:13.057Z,90.41
2022-12-03T17:18:40.968Z,90.14
2022-12-03T17:21:08.763Z,89.87
2022-12-03T17:23:38.113Z,89.79
2022-12-03T17:26:07.226Z,89.72
2022-12-03T17:28:35.533Z,89.67
2022-12-03T17:31:03.385Z,89.87
2022-12-03T17:33:31.693Z,89.93
2022-12-03T17:35:59.467Z,89.66
2022-12-03T17:38:27.272Z,89.67
2022-12-03T17:40:55.595Z,89.64
2022-12-03T17:43:23.520Z,89.87
2022-12-03T17:45:51.843Z,89.65
2022-12-03T17:48:19.722Z,90.92
2022-12-03T17:50:48.580Z,90.33
2022-12-03T17:53:16.312Z,90.14
2022-12-03T17:55:45.173Z,90.07
2022-12-03T17:58:13.577Z,90.06
2022-12-03T18:00:41.704Z,90.21
2022-12-03T18:03:09.645Z,90.27
2022-12-03T18:05:37.544Z,90.48
2022-12-03T18:08:06.141Z,90.95
2022-12-03T18:10:33.950Z,91.45
2022-12-03T18:13:02.420Z,90.49
2022-12-03T18:15:31.951Z,90.51
2022-12-03T18:17:59.856Z,90.53
2022-12-03T18:20:27.724Z,90.30
2022-12-03T18:22:57.109Z,90.48
2022-12-03T18:25:25.806Z,90.31
2022-12-03T18:27:53.919Z,90.26
2022-12-03T18:30:22.078Z,90.06
2022-12-03T18:32:50.643Z,90.09
2022-12-03T18:35:18.455Z,90.18
2022-12-03T18:37:46.469Z,89.83
2022-12-03T18:40:20.108Z,89.73
2022-12-03T18:42:48.564Z,89.59
2022-12-03T18:45:16.847Z,89.65
2022-12-03T18:47:45.214Z,89.98
2022-12-03T18:50:13.497Z,89.66
2022-12-03T18:52:41.289Z,89.79
2022-12-03T18:55:17.648Z,89.72
2022-12-03T18:57:46.018Z,89.56
2022-12-03T19:00:14.899Z,89.58
2022-12-03T19:03:02.254Z,89.77
2022-12-03T19:05:33.173Z,90.49
2022-12-03T19:08:02.009Z,91.03
2022-12-03T19:10:29.915Z,90.88
2022-12-03T19:12:57.679Z,90.54
2022-12-03T19:15:26.439Z,90.60
2022-12-03T19:17:54.401Z,90.59
2022-12-03T19:20:22.306Z,90.51
2022-12-03T19:22:50.180Z,92.39
2022-12-03T19:25:17.997Z,93.41
2022-12-03T19:27:46.597Z,92.51
2022-12-03T19:30:14.515Z,92.02
2022-12-03T19:32:42.490Z,91.96
2022-12-03T19:35:11.451Z,92.26
2022-12-03T19:37:39.879Z,91.76
2022-12-03T19:40:10.124Z,91.48
2022-12-03T19:42:38.088Z,91.47
2022-12-03T19:45:06.814Z,91.25
2022-12-03T19:47:35.784Z,91.14
2022-12-03T19:50:05.504Z,90.93
2022-12-03T19:52:36.495Z,90.61
2022-12-03T19:55:05.130Z,90.38
2022-12-03T19:57:33.538Z,90.20
2022-12-03T20:00:01.402Z,90.00
2022-12-03T20:02:29.379Z,90.24
2022-12-03T20:04:57.473Z,90.26
2022-12-03T20:07:25.221Z,90.66
2022-12-03T20:09:56.254Z,90.50
2022-12-03T20:12:24.381Z,90.51
2022-12-03T20:14:52.569Z,90.31
2022-12-03T20:17:20.401Z,90.92
2022-12-03T20:19:48.170Z,92.39
2022-12-03T20:22:16.160Z,91.54
2022-12-03T20:24:43.824Z,91.01
2022-12-03T20:27:11.575Z,91.34
2022-12-03T20:29:39.668Z,92.43
2022-12-03T20:32:07.716Z,91.90
2022-12-03T20:34:37.483Z,92.07
2022-12-03T20:37:05.312Z,93.20
2022-12-03T20:39:33.092Z,92.88
2022-12-03T20:42:00.943Z,92.31
2022-12-03T20:44:28.899Z,92.22
2022-12-03T20:46:56.815Z,91.95
2022-12-03T20:49:24.761Z,91.61
2022-12-03T20:51:52.571Z,91.82
2022-12-03T20:54:20.445Z,91.80
2022-12-03T20:56:50.938Z,91.92
2022-12-03T20:59:19.716Z,92.00
2022-12-03T21:01:47.562Z,92.03
2022-12-03T21:04:16.198Z,91.73
2022-12-03T21:06:46.119Z,91.28
2022-12-03T21:09:14.006Z,90.77
2022-12-03T21:11:42.640Z,90.53
2022-12-03T21:14:11.437Z,90.91
2022-12-03T21:17:06.638Z,91.41
2022-12-03T21:19:27.928Z,92.32
2022-12-03T21:21:55.714Z,92.00
2022-12-03T21:24:23.911Z,92.13
2022-12-03T21:26:51.654Z,91.84
2022-12-03T21:29:19.457Z,92.40
2022-12-03T21:31:47.226Z,92.55
2022-12-03T21:34:15.203Z,94.17
2022-12-03T21:36:44.080Z,94.85
2022-12-03T21:39:11.874Z,93.29
2022-12-03T21:41:39.724Z,92.98
2022-12-03T21:44:07.509Z,92.77
2022-12-03T21:47:10.410Z,92.64
2022-12-03T21:49:23.340Z,92.75
2022-12-03T21:51:51.077Z,92.58
2022-12-03T21:54:18.867Z,92.19
2022-12-03T21:56:46.745Z,92.09
2022-12-03T21:59:14.744Z,91.86
2022-12-03T22:02:00.836Z,91.57
2022-12-03T22:04:39.899Z,91.73
2022-12-03T22:07:08.987Z,91.47
2022-12-03T22:09:36.873Z,91.50
2022-12-03T22:12:04.941Z,91.41
2022-12-03T22:14:33.545Z,91.10
2022-12-03T22:17:01.367Z,91.36
2022-12-03T22:19:29.242Z,91.31
2022-12-03T22:21:57.034Z,91.40
2022-12-03T22:24:24.888Z,90.92
2022-12-03T22:26:54.672Z,90.90
2022-12-03T22:29:23.015Z,90.52
2022-12-03T22:31:51.371Z,90.80
2022-12-03T22:34:21.308Z,90.89
2022-12-03T22:36:49.468Z,91.17
2022-12-03T22:39:17.191Z,91.68
2022-12-03T22:41:45.035Z,91.31
2022-12-03T22:44:12.984Z,91.43
2022-12-03T22:46:40.783Z,91.59
2022-12-03T22:49:09.437Z,92.54
2022-12-03T22:51:37.333Z,94.23
2022-12-03T22:54:06.360Z,94.83
2022-12-03T22:56:34.171Z,97.11
2022-12-03T22:59:05.113Z,97.38
2022-12-03T23:01:38.686Z,97.87
2022-12-03T23:04:09.010Z,97.23
2022-12-03T23:06:37.984Z,96.76
2022-12-03T23:09:07.249Z,95.96
2022-12-03T23:11:35.660Z,94.97
2022-12-03T23:14:03.769Z,94.58
2022-12-03T23:16:33.233Z,94.38
2022-12-03T23:19:02.628Z,94.06
2022-12-03T23:21:33.999Z,93.63
2022-12-03T23:24:04.430Z,93.45
2022-12-03T23:26:36.599Z,94.71
2022-12-03T23:29:06.018Z,95.44
2022-12-03T23:31:36.687Z,96.64
2022-12-03T23:34:05.269Z,96.28
2022-12-03T23:36:34.110Z,96.01
2022-12-03T23:39:02.198Z,95.69
2022-12-03T23:41:29.993Z,95.36
2022-12-03T23:43:57.926Z,95.15
2022-12-03T23:46:27.455Z,94.85
2022-12-03T23:48:58.539Z,94.68
2022-12-03T23:51:27.577Z,94.52
2022-12-03T23:53:56.436Z,94.65
2022-12-03T23:56:27.676Z,94.73
2022-12-03T23:58:57.138Z,94.53
